sensor_id;sensor_type;location;lat;lon;timestamp;temperature;humidity
6756;DHT22;3415;51.148;7.014;2023-04-25T00:01:38;4.10;99.90
6756;DHT22;3415;51.148;7.014;2023-04-25T00:04:04;4.20;99.90
6756;DHT22;3415;51.148;7.014;2023-04-25T00:06:32;3.90;99.90
6756;DHT22;3415;51.148;7.014;2023-04-25T00:09:03;3.90;99.90
6756;DHT22;3415;51.148;7.014;2023-04-25T00:11:32;3.90;99.90
6756;DHT22;3415;51.148;7.014;2023-04-25T00:13:59;4.10;99.90
6756;DHT22;3415;51.148;7.014;2023-04-25T00:16:27;4.20;99.90
6756;DHT22;3415;51.148;7.014;2023-04-25T00:18:56;4.40;99.90
6756;DHT22;3415;51.148;7.014;2023-04-25T00:21:24;4.30;99.90
6756;DHT22;3415;51.148;7.014;2023-04-25T00:23:52;4.30;99.90
6756;DHT22;3415;51.148;7.014;2023-04-25T00:26:20;4.30;99.90
6756;DHT22;3415;51.148;7.014;2023-04-25T00:28:47;4.50;99.90
6756;DHT22;3415;51.148;7.014;2023-04-25T00:31:14;4.40;99.90
6756;DHT22;3415;51.148;7.014;2023-04-25T00:33:41;4.60;99.90
6756;DHT22;3415;51.148;7.014;2023-04-25T00:36:08;4.90;99.90
6756;DHT22;3415;51.148;7.014;2023-04-25T00:38:35;4.80;99.90
6756;DHT22;3415;51.148;7.014;2023-04-25T00:41:04;5.00;99.90
6756;DHT22;3415;51.148;7.014;2023-04-25T00:43:33;5.10;99.90
6756;DHT22;3415;51.148;7.014;2023-04-25T00:46:00;5.10;99.90
6756;DHT22;3415;51.148;7.014;2023-04-25T00:48:27;5.30;99.90
6756;DHT22;3415;51.148;7.014;2023-04-25T00:50:56;5.30;99.90
6756;DHT22;3415;51.148;7.014;2023-04-25T00:53:25;5.40;99.90
6756;DHT22;3415;51.148;7.014;2023-04-25T00:55:53;5.50;40.40
6756;DHT22;3415;51.148;7.014;2023-04-25T00:58:20;5.60;39.80
6756;DHT22;3415;51.148;7.014;2023-04-25T01:00:50;5.60;39.90
6756;DHT22;3415;51.148;7.014;2023-04-25T01:03:17;5.60;34.60
6756;DHT22;3415;51.148;7.014;2023-04-25T01:05:46;5.70;11.70
6756;DHT22;3415;51.148;7.014;2023-04-25T01:08:13;5.70;1.00
6756;DHT22;3415;51.148;7.014;2023-04-25T01:10:40;5.70;1.00
6756;DHT22;3415;51.148;7.014;2023-04-25T01:13:07;5.80;1.00
6756;DHT22;3415;51.148;7.014;2023-04-25T01:15:34;5.80;1.00
6756;DHT22;3415;51.148;7.014;2023-04-25T01:18:03;5.90;1.00
6756;DHT22;3415;51.148;7.014;2023-04-25T01:20:32;6.00;1.00
6756;DHT22;3415;51.148;7.014;2023-04-25T01:23:00;6.00;1.00
6756;DHT22;3415;51.148;7.014;2023-04-25T01:25:28;6.10;1.00
6756;DHT22;3415;51.148;7.014;2023-04-25T01:27:56;6.10;1.00
6756;DHT22;3415;51.148;7.014;2023-04-25T01:30:23;6.10;1.00
6756;DHT22;3415;51.148;7.014;2023-04-25T01:32:51;6.20;1.00
6756;DHT22;3415;51.148;7.014;2023-04-25T01:35:17;6.20;1.00
6756;DHT22;3415;51.148;7.014;2023-04-25T01:37:45;6.20;1.00
6756;DHT22;3415;51.148;7.014;2023-04-25T01:40:13;6.20;1.00
6756;DHT22;3415;51.148;7.014;2023-04-25T01:42:43;6.30;1.00
6756;DHT22;3415;51.148;7.014;2023-04-25T01:45:11;6.30;1.00
6756;DHT22;3415;51.148;7.014;2023-04-25T01:47:38;6.30;1.00
6756;DHT22;3415;51.148;7.014;2023-04-25T01:50:08;6.30;1.00
6756;DHT22;3415;51.148;7.014;2023-04-25T01:52:35;6.50;1.00
6756;DHT22;3415;51.148;7.014;2023-04-25T01:55:03;6.30;1.00
6756;DHT22;3415;51.148;7.014;2023-04-25T01:57:31;6.20;1.00
6756;DHT22;3415;51.148;7.014;2023-04-25T02:00:00;6.10;1.00
6756;DHT22;3415;51.148;7.014;2023-04-25T02:02:28;5.90;1.00
6756;DHT22;3415;51.148;7.014;2023-04-25T02:04:55;5.80;1.00
6756;DHT22;3415;51.148;7.014;2023-04-25T02:07:22;5.80;1.00
6756;DHT22;3415;51.148;7.014;2023-04-25T02:09:48;5.70;1.00
6756;DHT22;3415;51.148;7.014;2023-04-25T02:12:15;5.80;1.00
6756;DHT22;3415;51.148;7.014;2023-04-25T02:14:43;6.00;1.00
6756;DHT22;3415;51.148;7.014;2023-04-25T02:17:10;5.90;1.00
6756;DHT22;3415;51.148;7.014;2023-04-25T02:19:38;5.90;1.00
6756;DHT22;3415;51.148;7.014;2023-04-25T02:22:04;6.10;1.00
6756;DHT22;3415;51.148;7.014;2023-04-25T02:27:00;6.10;1.00
6756;DHT22;3415;51.148;7.014;2023-04-25T02:29:27;6.10;1.00
6756;DHT22;3415;51.148;7.014;2023-04-25T02:31:55;6.10;1.00
6756;DHT22;3415;51.148;7.014;2023-04-25T02:34:22;6.10;1.00
6756;DHT22;3415;51.148;7.014;2023-04-25T02:36:49;6.10;1.00
6756;DHT22;3415;51.148;7.014;2023-04-25T02:39:16;6.20;1.00
6756;DHT22;3415;51.148;7.014;2023-04-25T02:41:43;6.20;1.00
6756;DHT22;3415;51.148;7.014;2023-04-25T02:44:10;6.30;1.00
6756;DHT22;3415;51.148;7.014;2023-04-25T02:46:37;6.40;1.00
6756;DHT22;3415;51.148;7.014;2023-04-25T02:49:05;6.20;1.00
6756;DHT22;3415;51.148;7.014;2023-04-25T02:51:32;6.30;1.00
6756;DHT22;3415;51.148;7.014;2023-04-25T02:53:59;6.30;1.00
6756;DHT22;3415;51.148;7.014;2023-04-25T02:56:25;6.30;1.00
6756;DHT22;3415;51.148;7.014;2023-04-25T02:58:52;6.30;1.00
6756;DHT22;3415;51.148;7.014;2023-04-25T03:01:19;6.20;1.00
6756;DHT22;3415;51.148;7.014;2023-04-25T03:03:46;6.10;1.00
6756;DHT22;3415;51.148;7.014;2023-04-25T03:06:15;6.10;1.00
6756;DHT22;3415;51.148;7.014;2023-04-25T03:08:42;6.20;1.00
6756;DHT22;3415;51.148;7.014;2023-04-25T03:11:08;6.20;1.00
6756;DHT22;3415;51.148;7.014;2023-04-25T03:13:35;6.20;1.00
6756;DHT22;3415;51.148;7.014;2023-04-25T03:16:03;8.10;1.00
6756;DHT22;3415;51.148;7.014;2023-04-25T03:18:29;6.30;1.00
6756;DHT22;3415;51.148;7.014;2023-04-25T03:23:25;6.10;1.00
6756;DHT22;3415;51.148;7.014;2023-04-25T03:25:52;6.10;1.00
6756;DHT22;3415;51.148;7.014;2023-04-25T03:28:18;6.20;1.00
6756;DHT22;3415;51.148;7.014;2023-04-25T03:30:45;6.20;1.00
6756;DHT22;3415;51.148;7.014;2023-04-25T03:33:12;6.20;1.00
6756;DHT22;3415;51.148;7.014;2023-04-25T03:35:39;6.20;1.00
6756;DHT22;3415;51.148;7.014;2023-04-25T03:38:06;6.20;1.00
6756;DHT22;3415;51.148;7.014;2023-04-25T03:40:34;6.20;1.00
6756;DHT22;3415;51.148;7.014;2023-04-25T03:43:01;6.20;1.00
6756;DHT22;3415;51.148;7.014;2023-04-25T03:45:28;6.30;1.00
6756;DHT22;3415;51.148;7.014;2023-04-25T03:47:54;6.20;1.00
6756;DHT22;3415;51.148;7.014;2023-04-25T03:50:21;6.30;1.00
6756;DHT22;3415;51.148;7.014;2023-04-25T03:52:48;6.20;1.00
6756;DHT22;3415;51.148;7.014;2023-04-25T03:55:15;6.20;1.00
6756;DHT22;3415;51.148;7.014;2023-04-25T03:57:43;6.30;1.00
6756;DHT22;3415;51.148;7.014;2023-04-25T04:00:11;6.20;1.00
6756;DHT22;3415;51.148;7.014;2023-04-25T04:02:38;6.30;1.00
6756;DHT22;3415;51.148;7.014;2023-04-25T04:05:05;6.40;1.00
6756;DHT22;3415;51.148;7.014;2023-04-25T04:07:32;6.30;1.00
6756;DHT22;3415;51.148;7.014;2023-04-25T04:10:02;6.30;1.00
6756;DHT22;3415;51.148;7.014;2023-04-25T04:12:30;6.40;1.00
6756;DHT22;3415;51.148;7.014;2023-04-25T04:14:59;6.40;1.00
6756;DHT22;3415;51.148;7.014;2023-04-25T04:17:25;6.30;1.00
6756;DHT22;3415;51.148;7.014;2023-04-25T04:19:52;6.30;1.00
6756;DHT22;3415;51.148;7.014;2023-04-25T04:22:19;6.50;1.00
6756;DHT22;3415;51.148;7.014;2023-04-25T04:24:46;6.20;1.00
6756;DHT22;3415;51.148;7.014;2023-04-25T04:27:13;6.20;1.00
6756;DHT22;3415;51.148;7.014;2023-04-25T04:29:40;6.20;1.00
6756;DHT22;3415;51.148;7.014;2023-04-25T04:32:08;6.10;1.00
6756;DHT22;3415;51.148;7.014;2023-04-25T04:34:35;6.10;1.00
6756;DHT22;3415;51.148;7.014;2023-04-25T04:37:03;6.20;1.00
6756;DHT22;3415;51.148;7.014;2023-04-25T04:39:30;6.30;1.00
6756;DHT22;3415;51.148;7.014;2023-04-25T04:41:57;6.20;1.00
6756;DHT22;3415;51.148;7.014;2023-04-25T04:44:25;6.20;1.00
6756;DHT22;3415;51.148;7.014;2023-04-25T04:46:51;6.30;1.00
6756;DHT22;3415;51.148;7.014;2023-04-25T04:49:20;6.30;1.00
6756;DHT22;3415;51.148;7.014;2023-04-25T04:51:47;6.20;1.00
6756;DHT22;3415;51.148;7.014;2023-04-25T04:54:15;6.40;1.00
6756;DHT22;3415;51.148;7.014;2023-04-25T04:56:42;6.10;1.00
6756;DHT22;3415;51.148;7.014;2023-04-25T04:59:09;6.20;1.00
6756;DHT22;3415;51.148;7.014;2023-04-25T05:01:37;6.20;1.00
6756;DHT22;3415;51.148;7.014;2023-04-25T05:04:04;6.20;1.00
6756;DHT22;3415;51.148;7.014;2023-04-25T05:06:33;6.20;1.00
6756;DHT22;3415;51.148;7.014;2023-04-25T05:09:00;6.20;1.00
6756;DHT22;3415;51.148;7.014;2023-04-25T05:11:26;6.20;1.00
6756;DHT22;3415;51.148;7.014;2023-04-25T05:13:53;6.20;1.00
6756;DHT22;3415;51.148;7.014;2023-04-25T05:16:20;6.20;1.00
6756;DHT22;3415;51.148;7.014;2023-04-25T05:18:47;6.10;1.00
6756;DHT22;3415;51.148;7.014;2023-04-25T05:21:14;6.10;1.00
6756;DHT22;3415;51.148;7.014;2023-04-25T05:23:43;6.10;1.00
6756;DHT22;3415;51.148;7.014;2023-04-25T05:26:10;6.20;1.00
6756;DHT22;3415;51.148;7.014;2023-04-25T05:28:39;6.40;1.00
6756;DHT22;3415;51.148;7.014;2023-04-25T05:31:06;6.60;1.00
6756;DHT22;3415;51.148;7.014;2023-04-25T05:33:33;7.00;1.00
6756;DHT22;3415;51.148;7.014;2023-04-25T05:36:00;7.20;1.00
6756;DHT22;3415;51.148;7.014;2023-04-25T05:38:27;7.50;1.00
6756;DHT22;3415;51.148;7.014;2023-04-25T05:40:55;7.60;1.00
6756;DHT22;3415;51.148;7.014;2023-04-25T05:43:22;7.80;1.00
6756;DHT22;3415;51.148;7.014;2023-04-25T05:45:48;8.00;1.00
6756;DHT22;3415;51.148;7.014;2023-04-25T05:48:15;8.50;1.00
6756;DHT22;3415;51.148;7.014;2023-04-25T05:50:42;8.60;1.00
6756;DHT22;3415;51.148;7.014;2023-04-25T05:53:09;8.70;1.00
6756;DHT22;3415;51.148;7.014;2023-04-25T05:55:36;8.70;1.00
6756;DHT22;3415;51.148;7.014;2023-04-25T05:58:05;8.70;1.00
6756;DHT22;3415;51.148;7.014;2023-04-25T06:00:32;8.40;1.00
6756;DHT22;3415;51.148;7.014;2023-04-25T06:02:59;8.20;1.00
6756;DHT22;3415;51.148;7.014;2023-04-25T06:05:26;8.10;1.00
6756;DHT22;3415;51.148;7.014;2023-04-25T06:07:53;8.10;1.00
6756;DHT22;3415;51.148;7.014;2023-04-25T06:10:20;8.20;1.00
6756;DHT22;3415;51.148;7.014;2023-04-25T06:12:49;8.20;1.00
6756;DHT22;3415;51.148;7.014;2023-04-25T06:15:17;8.20;1.00
6756;DHT22;3415;51.148;7.014;2023-04-25T06:17:44;8.60;1.00
6756;DHT22;3415;51.148;7.014;2023-04-25T06:20:11;8.60;1.00
6756;DHT22;3415;51.148;7.014;2023-04-25T06:22:38;8.60;1.00
6756;DHT22;3415;51.148;7.014;2023-04-25T06:25:05;8.50;1.00
6756;DHT22;3415;51.148;7.014;2023-04-25T06:27:33;8.40;1.00
6756;DHT22;3415;51.148;7.014;2023-04-25T06:30:00;8.40;1.00
6756;DHT22;3415;51.148;7.014;2023-04-25T06:32:28;8.30;1.00
6756;DHT22;3415;51.148;7.014;2023-04-25T06:34:55;8.40;1.00
6756;DHT22;3415;51.148;7.014;2023-04-25T06:37:23;8.40;1.00
6756;DHT22;3415;51.148;7.014;2023-04-25T06:39:50;8.60;1.00
6756;DHT22;3415;51.148;7.014;2023-04-25T06:42:17;8.80;1.00
6756;DHT22;3415;51.148;7.014;2023-04-25T06:44:44;9.30;1.00
6756;DHT22;3415;51.148;7.014;2023-04-25T06:47:11;10.10;1.00
6756;DHT22;3415;51.148;7.014;2023-04-25T06:49:39;11.00;1.00
6756;DHT22;3415;51.148;7.014;2023-04-25T06:52:06;10.80;1.00
6756;DHT22;3415;51.148;7.014;2023-04-25T06:54:33;10.70;1.00
6756;DHT22;3415;51.148;7.014;2023-04-25T06:57:00;10.60;1.00
6756;DHT22;3415;51.148;7.014;2023-04-25T06:59:27;10.40;1.00
6756;DHT22;3415;51.148;7.014;2023-04-25T07:01:54;10.30;1.00
6756;DHT22;3415;51.148;7.014;2023-04-25T07:04:21;10.00;1.00
6756;DHT22;3415;51.148;7.014;2023-04-25T07:06:49;9.60;1.00
6756;DHT22;3415;51.148;7.014;2023-04-25T07:09:16;9.60;1.00
6756;DHT22;3415;51.148;7.014;2023-04-25T07:11:43;9.50;1.00
6756;DHT22;3415;51.148;7.014;2023-04-25T07:14:10;9.40;1.00
6756;DHT22;3415;51.148;7.014;2023-04-25T07:16:39;10.20;1.00
6756;DHT22;3415;51.148;7.014;2023-04-25T07:19:07;11.00;1.00
6756;DHT22;3415;51.148;7.014;2023-04-25T07:21:34;11.40;1.00
6756;DHT22;3415;51.148;7.014;2023-04-25T07:24:04;11.30;1.00
6756;DHT22;3415;51.148;7.014;2023-04-25T07:26:31;11.90;1.00
6756;DHT22;3415;51.148;7.014;2023-04-25T07:28:59;12.30;1.00
6756;DHT22;3415;51.148;7.014;2023-04-25T07:31:26;11.70;1.00
6756;DHT22;3415;51.148;7.014;2023-04-25T07:33:53;12.00;1.00
6756;DHT22;3415;51.148;7.014;2023-04-25T07:36:20;12.80;99.90
6756;DHT22;3415;51.148;7.014;2023-04-25T07:38:47;13.30;99.90
6756;DHT22;3415;51.148;7.014;2023-04-25T07:41:16;13.20;99.90
6756;DHT22;3415;51.148;7.014;2023-04-25T07:43:43;12.70;99.90
6756;DHT22;3415;51.148;7.014;2023-04-25T07:46:10;13.50;99.90
6756;DHT22;3415;51.148;7.014;2023-04-25T07:48:37;14.80;99.90
6756;DHT22;3415;51.148;7.014;2023-04-25T07:51:04;15.60;99.90
6756;DHT22;3415;51.148;7.014;2023-04-25T07:53:32;15.60;99.90
6756;DHT22;3415;51.148;7.014;2023-04-25T07:56:00;14.80;99.90
6756;DHT22;3415;51.148;7.014;2023-04-25T07:58:28;15.70;99.90
6756;DHT22;3415;51.148;7.014;2023-04-25T08:00:55;15.50;99.90
6756;DHT22;3415;51.148;7.014;2023-04-25T08:03:22;14.40;99.90
6756;DHT22;3415;51.148;7.014;2023-04-25T08:05:49;12.90;99.90
6756;DHT22;3415;51.148;7.014;2023-04-25T08:08:15;12.10;99.90
6756;DHT22;3415;51.148;7.014;2023-04-25T08:10:42;11.40;99.90
6756;DHT22;3415;51.148;7.014;2023-04-25T08:13:09;11.00;99.90
6756;DHT22;3415;51.148;7.014;2023-04-25T08:15:37;10.60;99.90
6756;DHT22;3415;51.148;7.014;2023-04-25T08:18:04;10.30;99.90
6756;DHT22;3415;51.148;7.014;2023-04-25T08:20:31;9.90;99.90
6756;DHT22;3415;51.148;7.014;2023-04-25T08:22:58;9.70;99.90
6756;DHT22;3415;51.148;7.014;2023-04-25T08:25:25;9.60;99.90
6756;DHT22;3415;51.148;7.014;2023-04-25T08:27:52;9.40;99.90
6756;DHT22;3415;51.148;7.014;2023-04-25T08:30:18;9.20;99.90
6756;DHT22;3415;51.148;7.014;2023-04-25T08:32:47;9.20;99.90
6756;DHT22;3415;51.148;7.014;2023-04-25T08:35:14;9.30;99.90
6756;DHT22;3415;51.148;7.014;2023-04-25T08:37:43;9.40;99.90
6756;DHT22;3415;51.148;7.014;2023-04-25T08:40:12;9.80;99.90
6756;DHT22;3415;51.148;7.014;2023-04-25T08:42:41;11.00;99.90
6756;DHT22;3415;51.148;7.014;2023-04-25T08:45:08;11.00;99.90
6756;DHT22;3415;51.148;7.014;2023-04-25T08:47:37;11.10;99.90
6756;DHT22;3415;51.148;7.014;2023-04-25T08:50:07;11.00;99.90
6756;DHT22;3415;51.148;7.014;2023-04-25T08:52:38;11.10;99.90
6756;DHT22;3415;51.148;7.014;2023-04-25T08:55:07;10.80;99.90
6756;DHT22;3415;51.148;7.014;2023-04-25T08:57:37;11.20;99.90
6756;DHT22;3415;51.148;7.014;2023-04-25T09:00:05;11.50;99.90
6756;DHT22;3415;51.148;7.014;2023-04-25T09:02:33;11.50;99.90
6756;DHT22;3415;51.148;7.014;2023-04-25T09:05:01;12.50;99.90
6756;DHT22;3415;51.148;7.014;2023-04-25T09:07:31;14.30;99.90
6756;DHT22;3415;51.148;7.014;2023-04-25T09:09:57;15.90;99.90
6756;DHT22;3415;51.148;7.014;2023-04-25T09:12:26;15.30;99.90
6756;DHT22;3415;51.148;7.014;2023-04-25T09:15:03;13.90;99.90
6756;DHT22;3415;51.148;7.014;2023-04-25T09:17:30;12.50;99.90
6756;DHT22;3415;51.148;7.014;2023-04-25T09:20:06;11.80;99.90
6756;DHT22;3415;51.148;7.014;2023-04-25T09:22:36;11.30;99.90
6756;DHT22;3415;51.148;7.014;2023-04-25T09:25:04;10.70;99.90
6756;DHT22;3415;51.148;7.014;2023-04-25T09:27:34;11.10;99.90
6756;DHT22;3415;51.148;7.014;2023-04-25T09:30:01;11.10;99.90
6756;DHT22;3415;51.148;7.014;2023-04-25T09:32:28;13.20;99.90
6756;DHT22;3415;51.148;7.014;2023-04-25T09:34:56;16.70;99.90
6756;DHT22;3415;51.148;7.014;2023-04-25T09:37:24;19.00;99.90
6756;DHT22;3415;51.148;7.014;2023-04-25T09:39:54;20.20;99.90
6756;DHT22;3415;51.148;7.014;2023-04-25T09:42:22;18.40;99.90
6756;DHT22;3415;51.148;7.014;2023-04-25T09:44:52;16.60;99.90
6756;DHT22;3415;51.148;7.014;2023-04-25T09:47:20;16.00;99.90
6756;DHT22;3415;51.148;7.014;2023-04-25T09:49:49;17.70;99.90
6756;DHT22;3415;51.148;7.014;2023-04-25T09:52:18;17.60;99.90
6756;DHT22;3415;51.148;7.014;2023-04-25T09:54:46;16.10;99.90
6756;DHT22;3415;51.148;7.014;2023-04-25T09:57:16;14.10;99.90
6756;DHT22;3415;51.148;7.014;2023-04-25T09:59:47;13.30;99.90
6756;DHT22;3415;51.148;7.014;2023-04-25T10:02:17;12.40;99.90
6756;DHT22;3415;51.148;7.014;2023-04-25T10:04:48;11.50;99.90
6756;DHT22;3415;51.148;7.014;2023-04-25T10:07:18;11.50;99.90
6756;DHT22;3415;51.148;7.014;2023-04-25T10:09:48;11.60;99.90
6756;DHT22;3415;51.148;7.014;2023-04-25T10:12:17;11.50;99.90
6756;DHT22;3415;51.148;7.014;2023-04-25T10:14:44;11.50;99.90
6756;DHT22;3415;51.148;7.014;2023-04-25T10:17:12;12.30;99.90
6756;DHT22;3415;51.148;7.014;2023-04-25T10:19:40;14.00;99.90
6756;DHT22;3415;51.148;7.014;2023-04-25T10:22:08;14.20;99.90
6756;DHT22;3415;51.148;7.014;2023-04-25T10:24:39;14.70;99.90
6756;DHT22;3415;51.148;7.014;2023-04-25T10:27:06;14.60;99.90
6756;DHT22;3415;51.148;7.014;2023-04-25T10:29:35;13.80;99.90
6756;DHT22;3415;51.148;7.014;2023-04-25T10:32:02;12.70;99.90
6756;DHT22;3415;51.148;7.014;2023-04-25T10:34:39;12.60;99.90
6756;DHT22;3415;51.148;7.014;2023-04-25T10:37:09;12.40;99.90
6756;DHT22;3415;51.148;7.014;2023-04-25T10:39:38;12.20;99.90
6756;DHT22;3415;51.148;7.014;2023-04-25T10:42:05;12.20;99.90
6756;DHT22;3415;51.148;7.014;2023-04-25T10:44:35;12.20;99.90
6756;DHT22;3415;51.148;7.014;2023-04-25T10:47:03;11.80;99.90
6756;DHT22;3415;51.148;7.014;2023-04-25T10:49:33;11.20;99.90
6756;DHT22;3415;51.148;7.014;2023-04-25T10:52:18;11.30;99.90
6756;DHT22;3415;51.148;7.014;2023-04-25T10:54:48;11.60;99.90
6756;DHT22;3415;51.148;7.014;2023-04-25T10:57:31;11.50;99.90
6756;DHT22;3415;51.148;7.014;2023-04-25T11:00:02;11.50;99.90
6756;DHT22;3415;51.148;7.014;2023-04-25T11:02:32;11.80;99.90
6756;DHT22;3415;51.148;7.014;2023-04-25T11:05:03;11.50;99.90
6756;DHT22;3415;51.148;7.014;2023-04-25T11:07:37;11.40;99.90
6756;DHT22;3415;51.148;7.014;2023-04-25T11:10:05;11.50;99.90
6756;DHT22;3415;51.148;7.014;2023-04-25T11:12:32;11.50;99.90
6756;DHT22;3415;51.148;7.014;2023-04-25T11:15:01;11.90;99.90
6756;DHT22;3415;51.148;7.014;2023-04-25T11:17:29;11.90;99.90
6756;DHT22;3415;51.148;7.014;2023-04-25T11:19:56;12.40;99.90
6756;DHT22;3415;51.148;7.014;2023-04-25T11:22:23;13.10;99.90
6756;DHT22;3415;51.148;7.014;2023-04-25T11:24:50;14.00;99.90
6756;DHT22;3415;51.148;7.014;2023-04-25T11:27:17;14.60;99.90
6756;DHT22;3415;51.148;7.014;2023-04-25T11:29:44;15.60;99.90
6756;DHT22;3415;51.148;7.014;2023-04-25T11:32:15;17.30;99.90
6756;DHT22;3415;51.148;7.014;2023-04-25T11:34:43;19.00;99.90
6756;DHT22;3415;51.148;7.014;2023-04-25T11:37:11;19.80;99.90
6756;DHT22;3415;51.148;7.014;2023-04-25T11:39:43;18.30;99.90
6756;DHT22;3415;51.148;7.014;2023-04-25T11:42:10;16.60;99.90
6756;DHT22;3415;51.148;7.014;2023-04-25T11:44:38;15.70;99.90
6756;DHT22;3415;51.148;7.014;2023-04-25T11:47:05;15.70;99.90
6756;DHT22;3415;51.148;7.014;2023-04-25T11:49:35;16.50;99.90
6756;DHT22;3415;51.148;7.014;2023-04-25T11:52:02;17.20;99.90
6756;DHT22;3415;51.148;7.014;2023-04-25T11:54:29;18.80;99.90
6756;DHT22;3415;51.148;7.014;2023-04-25T11:56:56;19.80;99.90
6756;DHT22;3415;51.148;7.014;2023-04-25T11:59:24;19.90;99.90
6756;DHT22;3415;51.148;7.014;2023-04-25T12:01:51;19.40;99.90
6756;DHT22;3415;51.148;7.014;2023-04-25T12:04:20;19.00;99.90
6756;DHT22;3415;51.148;7.014;2023-04-25T12:06:50;17.80;99.90
6756;DHT22;3415;51.148;7.014;2023-04-25T12:09:19;16.50;99.90
6756;DHT22;3415;51.148;7.014;2023-04-25T12:11:48;15.50;99.90
6756;DHT22;3415;51.148;7.014;2023-04-25T12:14:25;15.00;99.90
6756;DHT22;3415;51.148;7.014;2023-04-25T12:16:54;15.10;99.90
6756;DHT22;3415;51.148;7.014;2023-04-25T12:19:23;14.90;99.90
6756;DHT22;3415;51.148;7.014;2023-04-25T12:21:51;14.70;99.90
6756;DHT22;3415;51.148;7.014;2023-04-25T12:24:26;13.70;99.90
6756;DHT22;3415;51.148;7.014;2023-04-25T12:26:54;12.70;99.90
6756;DHT22;3415;51.148;7.014;2023-04-25T12:29:26;12.10;99.90
6756;DHT22;3415;51.148;7.014;2023-04-25T12:31:54;11.50;99.90
6756;DHT22;3415;51.148;7.014;2023-04-25T12:34:22;11.10;99.90
6756;DHT22;3415;51.148;7.014;2023-04-25T12:36:51;11.00;99.90
6756;DHT22;3415;51.148;7.014;2023-04-25T12:39:19;10.60;99.90
6756;DHT22;3415;51.148;7.014;2023-04-25T12:41:47;10.40;99.90
6756;DHT22;3415;51.148;7.014;2023-04-25T12:44:14;10.30;99.90
6756;DHT22;3415;51.148;7.014;2023-04-25T12:46:41;10.10;99.90
6756;DHT22;3415;51.148;7.014;2023-04-25T12:49:08;9.10;99.90
6756;DHT22;3415;51.148;7.014;2023-04-25T12:51:35;10.00;99.90
6756;DHT22;3415;51.148;7.014;2023-04-25T12:54:05;9.70;99.90
6756;DHT22;3415;51.148;7.014;2023-04-25T12:56:32;9.60;99.90
6756;DHT22;3415;51.148;7.014;2023-04-25T12:58:59;9.50;99.90
6756;DHT22;3415;51.148;7.014;2023-04-25T13:01:26;9.60;99.90
6756;DHT22;3415;51.148;7.014;2023-04-25T13:03:53;9.30;99.90
6756;DHT22;3415;51.148;7.014;2023-04-25T13:06:21;9.30;99.90
6756;DHT22;3415;51.148;7.014;2023-04-25T13:08:48;9.20;99.90
6756;DHT22;3415;51.148;7.014;2023-04-25T13:11:16;9.20;99.90
6756;DHT22;3415;51.148;7.014;2023-04-25T13:13:44;9.20;99.90
6756;DHT22;3415;51.148;7.014;2023-04-25T13:16:11;9.30;99.90
6756;DHT22;3415;51.148;7.014;2023-04-25T13:18:40;9.60;99.90
6756;DHT22;3415;51.148;7.014;2023-04-25T13:21:07;10.00;99.90
6756;DHT22;3415;51.148;7.014;2023-04-25T13:23:36;10.60;99.90
6756;DHT22;3415;51.148;7.014;2023-04-25T13:26:03;11.00;99.90
6756;DHT22;3415;51.148;7.014;2023-04-25T13:28:31;11.10;99.90
6756;DHT22;3415;51.148;7.014;2023-04-25T13:30:58;11.20;99.90
6756;DHT22;3415;51.148;7.014;2023-04-25T13:33:25;11.40;99.90
6756;DHT22;3415;51.148;7.014;2023-04-25T13:35:52;11.40;99.90
6756;DHT22;3415;51.148;7.014;2023-04-25T13:38:22;11.20;99.90
6756;DHT22;3415;51.148;7.014;2023-04-25T13:40:49;11.20;99.90
6756;DHT22;3415;51.148;7.014;2023-04-25T13:43:18;11.10;99.90
6756;DHT22;3415;51.148;7.014;2023-04-25T13:45:47;11.20;99.90
6756;DHT22;3415;51.148;7.014;2023-04-25T13:50:41;11.40;99.90
6756;DHT22;3415;51.148;7.014;2023-04-25T13:53:07;11.40;99.90
6756;DHT22;3415;51.148;7.014;2023-04-25T13:55:35;11.50;99.90
6756;DHT22;3415;51.148;7.014;2023-04-25T13:58:02;11.20;99.90
6756;DHT22;3415;51.148;7.014;2023-04-25T14:00:33;11.20;99.90
6756;DHT22;3415;51.148;7.014;2023-04-25T14:03:02;11.10;99.90
6756;DHT22;3415;51.148;7.014;2023-04-25T14:05:32;11.20;99.90
6756;DHT22;3415;51.148;7.014;2023-04-25T14:08:04;11.60;99.90
6756;DHT22;3415;51.148;7.014;2023-04-25T14:10:31;11.60;99.90
6756;DHT22;3415;51.148;7.014;2023-04-25T14:12:58;12.00;99.90
6756;DHT22;3415;51.148;7.014;2023-04-25T14:15:26;12.30;99.90
6756;DHT22;3415;51.148;7.014;2023-04-25T14:17:52;12.40;99.90
6756;DHT22;3415;51.148;7.014;2023-04-25T14:20:21;12.80;99.90
6756;DHT22;3415;51.148;7.014;2023-04-25T14:22:49;12.60;99.90
6756;DHT22;3415;51.148;7.014;2023-04-25T14:25:16;12.10;99.90
6756;DHT22;3415;51.148;7.014;2023-04-25T14:27:42;11.90;99.90
6756;DHT22;3415;51.148;7.014;2023-04-25T14:30:13;11.20;99.90
6756;DHT22;3415;51.148;7.014;2023-04-25T14:32:40;10.60;99.90
6756;DHT22;3415;51.148;7.014;2023-04-25T14:35:07;10.50;99.90
6756;DHT22;3415;51.148;7.014;2023-04-25T14:37:36;10.60;99.90
6756;DHT22;3415;51.148;7.014;2023-04-25T14:40:03;10.80;99.90
6756;DHT22;3415;51.148;7.014;2023-04-25T14:42:30;10.70;99.90
6756;DHT22;3415;51.148;7.014;2023-04-25T14:44:57;10.70;99.90
6756;DHT22;3415;51.148;7.014;2023-04-25T14:47:24;11.00;99.90
6756;DHT22;3415;51.148;7.014;2023-04-25T14:49:51;11.10;99.90
6756;DHT22;3415;51.148;7.014;2023-04-25T14:52:19;11.10;99.90
6756;DHT22;3415;51.148;7.014;2023-04-25T14:54:47;10.80;99.90
6756;DHT22;3415;51.148;7.014;2023-04-25T14:57:14;10.50;99.90
6756;DHT22;3415;51.148;7.014;2023-04-25T14:59:42;10.20;99.90
6756;DHT22;3415;51.148;7.014;2023-04-25T15:02:08;10.20;99.90
6756;DHT22;3415;51.148;7.014;2023-04-25T15:04:35;10.10;99.90
6756;DHT22;3415;51.148;7.014;2023-04-25T15:07:02;10.20;99.90
6756;DHT22;3415;51.148;7.014;2023-04-25T15:09:30;10.20;99.90
6756;DHT22;3415;51.148;7.014;2023-04-25T15:11:58;10.40;99.90
6756;DHT22;3415;51.148;7.014;2023-04-25T15:14:26;10.80;99.90
6756;DHT22;3415;51.148;7.014;2023-04-25T15:16:52;10.90;99.90
6756;DHT22;3415;51.148;7.014;2023-04-25T15:19:19;11.00;99.90
6756;DHT22;3415;51.148;7.014;2023-04-25T15:21:46;10.80;99.90
6756;DHT22;3415;51.148;7.014;2023-04-25T15:24:13;10.80;99.90
6756;DHT22;3415;51.148;7.014;2023-04-25T15:26:42;11.00;99.90
6756;DHT22;3415;51.148;7.014;2023-04-25T15:29:10;11.20;99.90
6756;DHT22;3415;51.148;7.014;2023-04-25T15:31:37;11.40;99.90
6756;DHT22;3415;51.148;7.014;2023-04-25T15:34:04;11.40;99.90
6756;DHT22;3415;51.148;7.014;2023-04-25T15:36:31;11.40;99.90
6756;DHT22;3415;51.148;7.014;2023-04-25T15:38:58;11.30;99.90
6756;DHT22;3415;51.148;7.014;2023-04-25T15:41:25;10.80;99.90
6756;DHT22;3415;51.148;7.014;2023-04-25T15:43:52;10.80;99.90
6756;DHT22;3415;51.148;7.014;2023-04-25T15:46:20;10.70;99.90
6756;DHT22;3415;51.148;7.014;2023-04-25T15:48:48;10.70;99.90
6756;DHT22;3415;51.148;7.014;2023-04-25T15:51:15;10.80;99.90
6756;DHT22;3415;51.148;7.014;2023-04-25T15:53:42;10.70;99.90
6756;DHT22;3415;51.148;7.014;2023-04-25T15:56:09;10.70;99.90
6756;DHT22;3415;51.148;7.014;2023-04-25T15:58:36;10.60;99.90
6756;DHT22;3415;51.148;7.014;2023-04-25T16:01:03;10.50;99.90
6756;DHT22;3415;51.148;7.014;2023-04-25T16:03:31;10.50;99.90
6756;DHT22;3415;51.148;7.014;2023-04-25T16:05:58;10.50;99.90
6756;DHT22;3415;51.148;7.014;2023-04-25T16:08:25;10.50;99.90
6756;DHT22;3415;51.148;7.014;2023-04-25T16:10:54;10.50;99.90
6756;DHT22;3415;51.148;7.014;2023-04-25T16:13:21;10.70;99.90
6756;DHT22;3415;51.148;7.014;2023-04-25T16:15:48;11.00;99.90
6756;DHT22;3415;51.148;7.014;2023-04-25T16:18:14;10.90;99.90
6756;DHT22;3415;51.148;7.014;2023-04-25T16:20:43;10.90;99.90
6756;DHT22;3415;51.148;7.014;2023-04-25T16:23:10;10.90;99.90
6756;DHT22;3415;51.148;7.014;2023-04-25T16:25:37;11.00;99.90